Time;durP1;ratioP1;P1;durP2;ratioP2;P2;SDS_P1;SDS_P2;PMS_P1;PMS_P2;Temp;Humidity;BMP_temperature;BMP_pressure;BME280_temperature;BME280_humidity;BME280_pressure;Samples;Min_cycle;Max_cycle;Signal;HPM_P1;HPM_P2
2022/02/14 00:02:09;;;;;;;7.38;4.10;;;;;;;8.27;77.63;67692.63;5000296;28;20406;-88
2022/02/14 00:04:34;;;;;;;6.32;3.95;;;;;;;8.26;76.86;67686.22;5007670;28;20231;-88
2022/02/14 00:06:59;;;;;;;7.82;3.65;;;;;;;;;;5008180;28;20388;-87
2022/02/14 00:09:26;;;;;;;7.97;3.72;;;;;;;8.25;77.01;67682.97;5023952;28;20037;-86
2022/02/14 00:11:53;;;;;;;7.30;3.53;;;;;;;8.24;77.32;67684.50;5005740;28;20070;-87
2022/02/14 00:14:21;;;;;;;8.88;3.55;;;;;;;8.26;77.43;67686.22;5029442;28;20045;-86
2022/02/14 00:16:47;;;;;;;5.68;3.50;;;;;;;;;;5026209;28;20565;-88
2022/02/14 00:19:14;;;;;;;7.40;4.00;;;;;;;;;;5019120;28;20076;-87
2022/02/14 00:21:39;;;;;;;9.00;3.60;;;;;;;;;;5015795;28;20054;-88
2022/02/14 00:24:06;;;;;;;6.63;3.17;;;;;;;8.27;77.88;67687.88;5027076;28;20060;-86
2022/02/14 00:26:34;;;;;;;6.90;3.25;;;;;;;8.27;77.52;67687.88;5012841;28;20068;-88
2022/02/14 00:28:59;;;;;;;9.30;3.40;;;;;;;;;;5027300;28;20045;-89
2022/02/14 00:31:24;;;;;;;5.85;3.45;;;;;;;8.31;78.05;67692.41;5020086;28;20050;-89
2022/02/14 00:33:52;;;;;;;6.60;3.22;;;;;;;;;;5013393;28;20139;-88
2022/02/14 00:36:17;;;;;;;7.47;3.42;;;;;;;8.30;77.47;67691.28;5036552;28;20049;-85
2022/02/14 00:38:43;;;;;;;7.93;3.45;;;;;;;8.30;78.51;67691.28;5006403;28;20057;-87
2022/02/14 00:41:10;;;;;;;6.88;3.55;;;;;;;8.32;78.03;67690.91;5031978;28;20272;-87
2022/02/14 00:43:35;;;;;;;6.25;3.40;;;;;;;;;;5041415;28;20041;-87
2022/02/14 00:46:00;;;;;;;7.35;3.28;;;;;;;8.32;77.91;67693.00;5009850;28;20110;-88
2022/02/14 00:48:26;;;;;;;6.07;2.90;;;;;;;;;;5024080;28;20068;-88
2022/02/14 00:50:51;;;;;;;6.72;3.33;;;;;;;;;;5043075;28;20048;-88
2022/02/14 00:53:18;;;;;;;7.25;3.17;;;;;;;8.31;78.83;67691.84;5049540;28;20051;-88
2022/02/14 00:55:44;;;;;;;7.95;3.60;;;;;;;8.34;78.84;67695.84;5020855;28;20038;-85
2022/02/14 00:58:09;;;;;;;6.60;3.75;;;;;;;;;;5024470;28;20072;-85
2022/02/14 01:00:35;;;;;;;7.70;3.22;;;;;;;8.34;77.93;67701.13;5008853;28;20064;-88
2022/02/14 01:03:02;;;;;;;8.27;3.58;;;;;;;8.38;79.03;67696.56;4995925;28;20049;-91
2022/02/14 01:05:27;;;;;;;7.97;3.30;;;;;;;8.41;78.92;67707.94;4993758;28;20128;-85
2022/02/14 01:07:53;;;;;;;7.97;3.17;;;;;;;8.40;78.61;67701.50;5009360;28;20342;-86
2022/02/14 01:10:18;;;;;;;8.45;3.10;;;;;;;;;;5012956;28;20073;-87
2022/02/14 01:12:45;;;;;;;8.30;3.63;;;;;;;;;;5034132;28;20046;-85
2022/02/14 01:15:12;;;;;;;6.22;3.28;;;;;;;;;;5038079;28;20045;-88
2022/02/14 01:17:37;;;;;;;7.18;2.78;;;;;;;;;;5033161;28;20524;-87
2022/02/14 01:20:08;;;;;;;10.05;3.97;;;;;;;8.42;78.97;67701.13;5031788;28;20048;-86
2022/02/14 01:22:34;;;;;;;6.82;3.28;;;;;;;;;;5032691;28;20061;-87
2022/02/14 01:24:59;;;;;;;7.47;2.90;;;;;;;8.43;79.21;67704.91;5025472;28;20470;-86
2022/02/14 01:27:27;;;;;;;7.10;3.63;;;;;;;8.45;78.74;67713.03;5029221;28;20175;-87
2022/02/14 01:29:53;;;;;;;6.10;3.25;;;;;;;8.45;78.63;67707.16;5043900;28;20107;-87
2022/02/14 01:32:22;;;;;;;5.35;3.35;;;;;;;8.45;79.40;67707.72;5037908;28;20055;-87
2022/02/14 01:34:50;;;;;;;8.60;3.40;;;;;;;8.42;79.76;67704.34;5030477;28;20433;-86
2022/02/14 01:37:18;;;;;;;7.80;3.38;;;;;;;8.42;79.00;67709.63;5028602;28;20049;-88
2022/02/14 01:39:44;;;;;;;8.77;3.85;;;;;;;;;;5031596;28;20247;-87
2022/02/14 01:42:09;;;;;;;8.13;3.25;;;;;;;8.42;80.07;67709.06;5035670;28;20131;-86
2022/02/14 01:44:46;;;;;;;9.02;3.22;;;;;;;8.42;79.54;67703.78;5023478;28;20045;-87
2022/02/14 01:47:18;;;;;;;11.38;3.58;;;;;;;8.44;79.16;67711.34;5019965;28;20123;-90
2022/02/14 01:49:44;;;;;;;8.13;3.35;;;;;;;8.46;79.28;67708.28;5022100;28;20046;-88
2022/02/14 01:52:11;;;;;;;7.15;3.42;;;;;;;8.46;79.82;67708.28;5020885;28;20060;-87
2022/02/14 01:54:37;;;;;;;8.15;3.20;;;;;;;;;;5025695;28;20128;-88
2022/02/14 01:57:06;;;;;;;8.07;3.45;;;;;;;8.50;79.19;67712.84;5018464;28;20081;-87
2022/02/14 01:59:33;;;;;;;7.30;3.33;;;;;;;8.51;79.36;67719.84;5023802;28;20057;-85
2022/02/14 02:01:59;;;;;;;7.50;3.95;;;;;;;8.52;79.68;67715.09;5028332;28;20067;-87
2022/02/14 02:04:25;;;;;;;7.18;3.35;;;;;;;;;;5028872;28;20041;-89
2022/02/14 02:06:57;;;;;;;7.13;3.45;;;;;;;;;;5030963;28;20059;-85
2022/02/14 02:09:24;;;;;;;6.60;3.35;;;;;;;;;;5025451;28;20045;-89
2022/02/14 02:14:36;;;;;;;7.57;3.15;;;;;;;8.60;79.37;67729.47;5026738;28;20433;-86
2022/02/14 02:17:02;;;;;;;9.65;3.42;;;;;;;8.58;79.94;67722.47;5005038;28;20041;-86
2022/02/14 02:19:28;;;;;;;4.93;2.90;;;;;;;;;;5024588;28;20136;-89
2022/02/14 02:21:54;;;;;;;6.43;2.92;;;;;;;8.58;80.05;67722.47;5021484;28;20056;-85
2022/02/14 02:24:22;;;;;;;13.05;3.63;;;;;;;8.61;79.34;67722.09;5021029;28;20045;-86
2022/02/14 02:26:55;;;;;;;8.85;3.13;;;;;;;;;;5022899;28;20053;-89
2022/02/14 02:29:21;;;;;;;7.85;2.85;;;;;;;8.63;79.75;67724.91;5026497;28;20041;-87
2022/02/14 02:31:48;;;;;;;10.00;3.40;;;;;;;8.63;79.20;67727.00;5027637;28;20037;-86
2022/02/14 02:34:15;;;;;;;10.18;3.25;;;;;;;8.68;78.71;67733.22;5012452;28;20041;-88
2022/02/14 02:36:48;;;;;;;8.00;3.28;;;;;;;8.68;79.24;67737.97;5019621;28;20056;-88
2022/02/14 02:39:14;;;;;;;6.00;3.00;;;;;;;8.67;79.09;67731.53;5026404;28;20044;-89
2022/02/14 02:41:41;;;;;;;6.43;2.90;;;;;;;8.68;79.02;67733.22;5025275;28;20054;-87
2022/02/14 02:44:07;;;;;;;8.30;3.55;;;;;;;8.68;79.51;67730.00;5023553;28;20049;-86
2022/02/14 02:46:34;;;;;;;7.13;2.90;;;;;;;8.68;79.86;67733.22;5006401;28;20042;-86
2022/02/14 02:49:13;;;;;;;9.18;3.28;;;;;;;8.69;79.17;67741.75;5024984;28;20053;-89
2022/02/14 02:51:39;;;;;;;5.63;2.70;;;;;;;;;;5025353;28;20041;-88
2022/02/14 02:54:05;;;;;;;7.38;3.35;;;;;;;8.70;79.27;67735.50;5044348;28;20399;-89
2022/02/14 02:56:30;;;;;;;8.60;3.45;;;;;;;;;;5010023;28;20053;-88
2022/02/14 02:58:55;;;;;;;8.18;3.63;;;;;;;8.70;79.75;67740.81;5012838;28;20460;-86
2022/02/14 03:01:20;;;;;;;9.10;3.40;;;;;;;;;;5035425;28;20037;-87
2022/02/14 03:03:47;;;;;;;8.17;3.00;;;;;;;8.67;79.90;67740.06;5014863;28;20322;-89
2022/02/14 03:06:13;;;;;;;10.52;3.00;;;;;;;8.69;79.49;67739.09;5020476;28;20277;-88
2022/02/14 03:08:38;;;;;;;8.48;3.15;;;;;;;;;;5017399;28;20553;-89
2022/02/14 03:11:03;;;;;;;7.60;2.63;;;;;;;8.71;79.20;67733.97;5039346;28;20048;-86
2022/02/14 03:13:29;;;;;;;6.40;2.88;;;;;;;8.71;80.13;67736.06;5042666;28;20037;-86
2022/02/14 03:15:54;;;;;;;4.65;2.85;;;;;;;8.65;80.17;67734.56;5040885;28;20041;-86
2022/02/14 03:18:19;;;;;;;8.45;2.70;;;;;;;;;;5031927;28;20044;-89
2022/02/14 03:20:45;;;;;;;4.78;2.50;;;;;;;8.64;79.85;67728.69;5043112;28;20340;-88
2022/02/14 03:23:10;;;;;;;9.30;3.25;;;;;;;8.60;79.98;67729.47;5038381;28;20056;-89
2022/02/14 03:25:35;;;;;;;6.82;2.72;;;;;;;;;;4997630;28;20472;-87
2022/02/14 03:28:01;;;;;;;7.45;3.10;;;;;;;8.65;80.26;67729.81;5025184;28;20124;-89
2022/02/14 03:30:26;;;;;;;6.72;2.92;;;;;;;;;;5029524;28;20410;-86
2022/02/14 03:32:51;;;;;;;7.00;3.20;;;;;;;;;;5034832;28;20034;-87
2022/02/14 03:35:16;;;;;;;8.07;3.25;;;;;;;;;;5021524;28;20402;-87
2022/02/14 03:37:42;;;;;;;7.07;3.25;;;;;;;8.64;80.13;67733.44;5039584;28;20086;-89
2022/02/14 03:40:08;;;;;;;9.30;2.95;;;;;;;8.66;79.89;67727.72;4995196;28;20949;-87
2022/02/14 03:42:33;;;;;;;7.20;3.10;;;;;;;8.68;79.15;67733.22;5015212;28;20568;-90
2022/02/14 03:44:59;;;;;;;5.35;2.13;;;;;;;;;;5013686;28;20046;-87
2022/02/14 03:47:24;;;;;;;8.65;2.90;;;;;;;8.68;80.61;67732.66;5034953;28;20493;-87
2022/02/14 03:49:49;;;;;;;9.30;2.85;;;;;;;;;;5002088;28;20042;-89
2022/02/14 03:52:15;;;;;;;6.75;2.70;;;;;;;8.67;79.48;67731.53;5024994;28;20107;-85
2022/02/14 03:54:40;;;;;;;5.15;2.53;;;;;;;8.70;79.27;67740.22;5011047;28;20500;-85
2022/02/14 03:57:05;;;;;;;6.18;2.95;;;;;;;8.70;79.32;67735.50;5017681;28;20037;-87
2022/02/14 03:59:31;;;;;;;10.32;2.92;;;;;;;8.73;79.70;67738.31;5049858;28;20404;-86
2022/02/14 04:01:56;;;;;;;7.00;2.88;;;;;;;8.77;79.25;67742.84;5016162;28;20152;-85
2022/02/14 04:04:21;;;;;;;6.25;2.58;;;;;;;8.78;79.17;67744.00;5039045;28;20107;-85
2022/02/14 04:06:47;;;;;;;6.65;2.80;;;;;;;8.78;79.16;67741.34;4996147;28;20124;-89
2022/02/14 04:09:12;;;;;;;5.10;2.42;;;;;;;8.77;79.41;67743.41;5032108;28;20043;-90
2022/02/14 04:11:37;;;;;;;6.38;2.70;;;;;;;8.81;78.90;67747.97;5019274;28;20076;-88
2022/02/14 04:14:03;;;;;;;7.05;2.80;;;;;;;8.84;79.00;67755.53;5018877;28;20115;-85
2022/02/14 04:16:28;;;;;;;5.68;2.33;;;;;;;8.85;79.05;67751.34;5020083;28;20389;-89
2022/02/14 04:18:53;;;;;;;7.75;3.63;;;;;;;8.86;79.18;67753.06;5043095;28;20117;-90
2022/02/14 04:21:19;;;;;;;8.60;2.90;;;;;;;8.88;78.28;67754.75;5024120;28;20468;-87
2022/02/14 04:23:44;;;;;;;5.93;2.53;;;;;;;8.91;78.62;67758.72;5025358;28;20041;-87
2022/02/14 04:26:09;;;;;;;6.45;2.35;;;;;;;8.92;78.43;67764.59;5025826;28;20132;-88
2022/02/14 04:28:35;;;;;;;9.32;3.05;;;;;;;;;;5063704;28;20478;-86
2022/02/14 04:31:00;;;;;;;7.70;3.28;;;;;;;8.96;78.38;67769.13;5043913;28;20487;-89
2022/02/14 04:33:26;;;;;;;8.65;2.55;;;;;;;8.98;78.88;67766.09;5043903;28;20037;-85
2022/02/14 04:35:51;;;;;;;5.70;2.97;;;;;;;;;;5036298;28;20045;-88
2022/02/14 04:38:16;;;;;;;9.63;3.30;;;;;;;;;;5043748;28;20110;-88
2022/02/14 04:40:42;;;;;;;5.50;2.63;;;;;;;;;;5036956;28;20513;-87
2022/02/14 04:43:08;;;;;;;6.13;2.45;;;;;;;9.07;77.69;67775.72;5044966;28;20098;-89
2022/02/14 04:45:34;;;;;;;6.68;2.60;;;;;;;9.07;78.15;67776.28;5023398;28;20087;-86
2022/02/14 04:48:00;;;;;;;7.07;2.45;;;;;;;9.06;78.76;67775.13;5009315;28;20045;-87
2022/02/14 04:50:25;;;;;;;4.95;2.38;;;;;;;9.08;77.58;67776.84;5043756;28;20136;-87
2022/02/14 04:52:51;;;;;;;4.93;2.38;;;;;;;;;;5035497;28;20029;-87
2022/02/14 04:55:17;;;;;;;9.32;2.60;;;;;;;9.16;78.19;67791.78;5025307;28;20069;-86
2022/02/14 04:57:43;;;;;;;5.75;2.33;;;;;;;9.15;77.30;67790.66;5037275;28;20029;-88
2022/02/14 05:00:09;;;;;;;9.48;3.33;;;;;;;;;;5033619;28;20056;-87
2022/02/14 05:02:35;;;;;;;6.55;2.30;;;;;;;;;;5031468;28;20041;-88
2022/02/14 05:05:00;;;;;;;7.80;2.33;;;;;;;9.23;77.03;67794.41;5021019;28;20140;-89
2022/02/14 05:07:25;;;;;;;6.13;2.42;;;;;;;9.25;77.09;67796.13;5018373;28;20046;-90
2022/02/14 05:09:51;;;;;;;6.28;2.20;;;;;;;;;;5026470;28;20045;-91
2022/02/14 05:12:18;;;;;;;8.60;2.67;;;;;;;;;;5011907;28;20049;-88
2022/02/14 05:14:50;;;;;;;8.20;2.70;;;;;;;9.23;77.43;67799.72;5010174;28;20136;-86
2022/02/14 05:17:17;;;;;;;5.80;2.55;;;;;;;9.21;77.30;67792.16;5019860;28;20045;-86
2022/02/14 05:19:44;;;;;;;7.45;2.67;;;;;;;9.23;76.67;67794.41;5019232;28;20052;-86
2022/02/14 05:22:11;;;;;;;8.52;2.50;;;;;;;;;;5018295;28;20046;-88
2022/02/14 05:24:38;;;;;;;4.93;2.47;;;;;;;9.25;77.31;67796.69;5030072;28;20037;-88
2022/02/14 05:27:03;;;;;;;6.22;2.58;;;;;;;9.24;77.42;67795.56;5019742;28;20050;-87
2022/02/14 05:29:29;;;;;;;6.00;2.47;;;;;;;;;;5014523;28;20094;-88
2022/02/14 05:31:56;;;;;;;6.35;2.38;;;;;;;9.26;77.53;67803.13;5032167;28;20050;-90
2022/02/14 05:34:23;;;;;;;6.15;2.50;;;;;;;9.26;77.23;67803.13;5004510;28;20045;-89
2022/02/14 05:36:48;;;;;;;6.57;2.30;;;;;;;9.29;78.16;67800.66;5024596;28;20036;-88
2022/02/14 05:39:13;;;;;;;5.53;1.85;;;;;;;;;;5009618;28;20041;-89
2022/02/14 05:41:41;;;;;;;6.35;2.42;;;;;;;9.29;77.40;67800.06;5012740;28;20511;-90
2022/02/14 05:44:08;;;;;;;5.07;2.40;;;;;;;9.29;77.38;67800.06;5007260;28;20056;-87
2022/02/14 05:46:35;;;;;;;6.07;2.25;;;;;;;9.29;77.85;67800.06;4989359;28;20487;-87
2022/02/14 05:49:00;;;;;;;7.25;2.85;;;;;;;9.30;77.56;67801.22;5030993;28;20056;-88
2022/02/14 05:51:26;;;;;;;5.30;2.35;;;;;;;9.29;77.27;67800.66;5008303;28;20077;-88
2022/02/14 05:53:53;;;;;;;5.47;2.13;;;;;;;9.30;77.60;67801.22;5008722;28;20068;-86
2022/02/14 05:56:18;;;;;;;6.03;2.63;;;;;;;9.31;77.41;67800.25;4990943;28;20033;-87
2022/02/14 05:58:44;;;;;;;6.45;2.30;;;;;;;9.31;77.51;67808.22;5024311;28;20045;-87
2022/02/14 06:01:09;;;;;;;6.68;2.55;;;;;;;;;;5023643;28;20041;-86
2022/02/14 06:03:36;;;;;;;5.88;2.10;;;;;;;9.31;78.40;67802.91;5026360;28;20059;-85
2022/02/14 06:06:05;;;;;;;6.07;2.10;;;;;;;9.32;77.56;67800.81;5028123;28;20136;-87
2022/02/14 06:08:31;;;;;;;5.07;2.35;;;;;;;;;;5027118;28;20038;-87
2022/02/14 06:10:56;;;;;;;6.63;2.40;;;;;;;9.29;78.44;67800.06;5027038;28;20058;-85
2022/02/14 06:13:22;;;;;;;5.20;2.30;;;;;;;;;;5029457;28;20037;-86
2022/02/14 06:15:48;;;;;;;5.47;2.30;;;;;;;9.26;78.82;67797.81;5022896;28;20049;-88
2022/02/14 06:18:14;;;;;;;4.55;2.15;;;;;;;9.23;78.58;67794.41;5022444;28;20490;-87
2022/02/14 06:20:40;;;;;;;8.07;3.13;;;;;;;;;;5031277;28;20076;-87
2022/02/14 06:23:06;;;;;;;5.30;2.20;;;;;;;9.21;79.19;67797.47;5024833;28;20076;-87
2022/02/14 06:25:33;;;;;;;4.07;2.00;;;;;;;;;;5023762;28;20045;-87
2022/02/14 06:27:59;;;;;;;5.55;2.42;;;;;;;9.17;79.04;67787.03;5022890;28;20128;-86
2022/02/14 06:30:27;;;;;;;6.47;2.78;;;;;;;9.15;78.66;67785.34;5028171;28;20041;-90
2022/02/14 06:32:53;;;;;;;4.72;2.00;;;;;;;9.14;78.21;67789.53;4996818;28;20041;-88
2022/02/14 06:35:20;;;;;;;5.03;2.25;;;;;;;9.13;78.44;67783.09;5022490;28;20490;-86
2022/02/14 06:37:46;;;;;;;4.85;2.15;;;;;;;9.15;78.39;67784.78;5025290;28;20495;-85
2022/02/14 06:40:12;;;;;;;9.23;2.42;;;;;;;;;;5019929;28;20128;-85
2022/02/14 06:42:39;;;;;;;5.65;2.33;;;;;;;9.15;79.83;67784.78;5023419;28;20041;-85
2022/02/14 06:45:05;;;;;;;5.40;2.40;;;;;;;9.14;78.94;67784.22;5024027;28;20061;-86
2022/02/14 06:47:31;;;;;;;5.50;2.00;;;;;;;9.15;79.81;67782.69;5009561;28;20038;-88
2022/02/14 06:49:56;;;;;;;5.95;2.25;;;;;;;9.15;79.65;67785.34;5030204;28;20493;-85
2022/02/14 06:52:22;;;;;;;5.25;2.10;;;;;;;9.18;79.33;67794.06;5012582;28;20069;-86
2022/02/14 06:54:48;;;;;;;5.68;2.10;;;;;;;9.18;79.42;67785.53;4984697;28;20800;-87
2022/02/14 06:57:13;;;;;;;4.68;1.83;;;;;;;9.18;79.27;67788.75;5016318;28;20057;-88
2022/02/14 06:59:41;;;;;;;5.38;2.30;;;;;;;;;;5029197;28;20051;-87
2022/02/14 07:02:07;;;;;;;3.20;1.83;;;;;;;9.20;79.95;67791.00;5032205;28;20063;-88
2022/02/14 07:04:34;;;;;;;8.63;2.63;;;;;;;;;;5047591;28;20045;-89
2022/02/14 07:07:00;;;;;;;6.90;2.05;;;;;;;9.19;80.33;67794.63;5043023;28;20095;-88
2022/02/14 07:09:26;;;;;;;6.45;2.15;;;;;;;9.18;80.46;67788.19;5033154;28;20086;-88
2022/02/14 07:11:54;;;;;;;6.53;2.20;;;;;;;9.19;80.28;67789.88;5032438;28;20042;-88
2022/02/14 07:14:22;;;;;;;4.75;2.10;;;;;;;9.20;79.90;67787.78;5043446;28;20556;-88
2022/02/14 07:16:50;;;;;;;5.25;1.80;;;;;;;;;;5032267;28;20045;-88
2022/02/14 07:19:16;;;;;;;5.75;2.15;;;;;;;;;;5058007;28;20041;-88
2022/02/14 07:21:42;;;;;;;5.40;2.38;;;;;;;;;;5043443;28;20071;-88
2022/02/14 07:24:10;;;;;;;4.68;1.95;;;;;;;9.25;80.19;67802.00;5044625;28;20041;-88
2022/02/14 07:26:37;;;;;;;5.82;2.05;;;;;;;;;;5030691;28;20064;-89
2022/02/14 07:29:09;;;;;;;6.03;2.50;;;;;;;9.29;80.25;67800.06;5034431;28;20059;-89
2022/02/14 07:31:35;;;;;;;5.13;1.98;;;;;;;9.29;81.13;67800.06;5041069;28;20060;-88
2022/02/14 07:34:09;;;;;;;3.60;2.10;;;;;;;;;;5075123;28;20044;-88
2022/02/14 07:36:43;;;;;;;6.10;2.70;;;;;;;9.26;81.48;67797.25;5036175;28;20048;-89
2022/02/14 07:39:11;;;;;;;8.65;2.20;;;;;;;9.28;81.37;67796.84;5034345;28;20043;-88
2022/02/14 07:41:37;;;;;;;4.30;1.90;;;;;;;;;;5018506;28;20033;-88
2022/02/14 07:44:05;;;;;;;6.13;2.10;;;;;;;9.25;81.49;67794.03;5026246;28;20067;-88
2022/02/14 07:46:33;;;;;;;4.80;2.03;;;;;;;9.25;81.73;67796.69;5042750;28;20060;-88
2022/02/14 07:48:59;;;;;;;5.85;1.90;;;;;;;;;;5039105;28;20060;-88
2022/02/14 07:51:38;;;;;;;6.97;2.13;;;;;;;9.26;82.41;67797.81;5016502;28;20060;-88
2022/02/14 07:54:04;;;;;;;5.57;1.48;;;;;;;9.23;82.16;67794.41;5028473;28;20045;-89
2022/02/14 07:56:30;;;;;;;7.63;2.47;;;;;;;9.25;82.62;67796.13;5017139;28;20041;-88
2022/02/14 07:58:58;;;;;;;4.70;2.00;;;;;;;;;;5014128;28;20053;-89
2022/02/14 08:01:23;;;;;;;4.82;2.10;;;;;;;9.25;83.13;67801.44;5007162;28;20042;-88
2022/02/14 08:03:53;;;;;;;5.85;2.38;;;;;;;9.25;83.55;67794.03;4962863;28;20050;-89
2022/02/14 08:06:18;;;;;;;5.55;2.10;;;;;;;;;;4974664;28;20066;-88
2022/02/14 08:08:52;;;;;;;7.45;2.17;;;;;;;9.27;82.80;67798.94;5026846;28;20038;-89
2022/02/14 08:11:22;;;;;;;4.80;1.92;;;;;;;9.30;83.17;67798.56;5004546;28;20060;-88
2022/02/14 08:13:49;;;;;;;5.50;1.80;;;;;;;9.33;83.12;67809.94;5005941;28;20128;-88
2022/02/14 08:16:16;;;;;;;4.50;1.80;;;;;;;9.34;83.41;67811.06;5003310;28;20107;-89
2022/02/14 08:18:42;;;;;;;6.50;1.92;;;;;;;;;;4960490;28;20454;-89
2022/02/14 08:21:10;;;;;;;4.40;2.00;;;;;;;9.36;83.48;67808.03;5025311;28;20064;-89
2022/02/14 08:23:38;;;;;;;3.65;2.05;;;;;;;9.37;83.83;67809.16;4998957;28;20046;-89
2022/02/14 08:26:06;;;;;;;5.18;2.33;;;;;;;9.37;83.90;67809.16;5003461;28;20046;-88
2022/02/14 08:28:40;;;;;;;4.95;1.98;;;;;;;9.37;83.90;67807.06;5008667;28;20069;-89
2022/02/14 08:31:14;;;;;;;5.13;2.08;;;;;;;9.39;84.52;67817.31;4987743;28;20114;-89
2022/02/14 08:33:46;;;;;;;6.35;1.83;;;;;;;9.41;84.15;67814.25;4989768;28;20042;-88
2022/02/14 08:36:22;;;;;;;7.38;2.30;;;;;;;9.47;84.66;67826.38;4976083;28;20039;-88
2022/02/14 08:38:58;;;;;;;5.32;2.38;;;;;;;;;;4994393;28;20088;-88
2022/02/14 08:41:27;;;;;;;4.38;1.88;;;;;;;9.54;84.75;67828.44;4976637;28;20038;-89
2022/02/14 08:43:56;;;;;;;6.05;2.25;;;;;;;9.57;84.87;67831.81;4974652;28;20038;-89
2022/02/14 08:46:22;;;;;;;3.17;1.90;;;;;;;9.60;84.91;67835.22;4992416;28;20069;-89
2022/02/14 08:48:48;;;;;;;6.40;2.58;;;;;;;;;;4985889;28;20056;-88
2022/02/14 08:51:16;;;;;;;6.63;1.95;;;;;;;9.61;85.41;67841.69;4989397;28;20455;-89
2022/02/14 08:53:53;;;;;;;4.88;1.98;;;;;;;9.63;85.58;67838.63;4988934;28;20038;-88
2022/02/14 08:56:19;;;;;;;6.78;2.10;;;;;;;;;;4995964;28;20046;-88
2022/02/14 08:58:47;;;;;;;3.80;2.22;;;;;;;9.67;86.22;67840.50;5003948;28;20049;-89
2022/02/14 09:01:17;;;;;;;4.40;2.10;;;;;;;9.68;86.08;67844.28;5027720;28;20136;-88
2022/02/14 09:03:44;;;;;;;5.75;2.10;;;;;;;9.69;86.00;67845.44;5037352;28;20465;-88
2022/02/14 09:06:09;;;;;;;4.72;2.05;;;;;;;;;;5043999;28;20045;-89
2022/02/14 09:08:35;;;;;;;4.63;2.00;;;;;;;;;;5047230;28;20068;-89
2022/02/14 09:11:08;;;;;;;4.13;1.95;;;;;;;;;;5057804;28;20045;-89
2022/02/14 09:13:36;;;;;;;5.70;2.20;;;;;;;9.81;87.12;67857.91;5037508;28;20115;-89
2022/02/14 09:16:05;;;;;;;3.97;1.80;;;;;;;9.83;87.36;67860.16;5050209;28;20033;-89
2022/02/14 09:18:37;;;;;;;4.85;2.17;;;;;;;9.85;87.06;67863.00;5062606;28;20067;-89
2022/02/14 09:21:04;;;;;;;5.05;2.30;;;;;;;9.88;87.56;67865.84;5076040;28;20049;-88
2022/02/14 09:23:30;;;;;;;6.22;1.98;;;;;;;9.90;87.67;67868.13;5048380;28;20060;-89
2022/02/14 09:26:03;;;;;;;3.92;1.92;;;;;;;9.96;87.81;67874.38;5071351;28;20040;-88
2022/02/14 09:28:29;;;;;;;2.55;1.58;;;;;;;9.98;88.34;67871.84;5049000;28;20044;-89
2022/02/14 09:30:56;;;;;;;3.35;1.75;;;;;;;10.01;88.21;67880.59;5044847;28;20499;-89
2022/02/14 09:33:24;;;;;;;4.82;1.92;;;;;;;10.03;88.39;67887.59;5037776;28;20041;-89
2022/02/14 09:35:51;;;;;;;3.60;1.80;;;;;;;10.03;88.70;67888.16;5032276;28;20044;-88
2022/02/14 09:38:17;;;;;;;5.18;2.97;;;;;;;;;;5041612;28;20424;-89
2022/02/14 09:40:48;;;;;;;3.67;1.77;;;;;;;;;;4990350;28;20053;-89
2022/02/14 09:43:17;;;;;;;5.35;1.70;;;;;;;10.07;89.35;67886.81;5003390;28;20038;-88
2022/02/14 09:45:43;;;;;;;3.15;1.75;;;;;;;10.08;89.61;67893.28;5000383;28;20037;-89
2022/02/14 09:48:12;;;;;;;7.75;1.90;;;;;;;10.07;89.99;67887.41;5009738;28;20107;-88
2022/02/14 09:50:39;;;;;;;4.60;2.05;;;;;;;10.11;89.99;67891.94;4996956;28;20264;-88
2022/02/14 09:53:08;;;;;;;3.10;1.67;;;;;;;10.12;90.18;67892.50;5001294;28;20050;-88
2022/02/14 09:55:37;;;;;;;6.25;1.40;;;;;;;10.13;90.21;67898.97;5016193;28;20096;-88
2022/02/14 09:58:06;;;;;;;3.00;1.30;;;;;;;10.13;91.21;67898.97;5009171;28;20095;-89
2022/02/14 10:00:36;;;;;;;2.25;1.50;;;;;;;10.08;92.86;67885.31;5013891;28;20109;-88
2022/02/14 10:03:18;;;;;;;4.10;1.42;;;;;;;9.91;96.09;67869.25;5006655;28;20120;-90
2022/02/14 10:05:53;;;;;;;3.50;1.95;;;;;;;9.80;98.98;67854.13;4998043;28;20045;-90
2022/02/14 10:08:30;;;;;;;4.00;2.00;;;;;;;9.71;99.48;67852.44;5011765;28;20038;-89
2022/02/14 10:11:18;;;;;;;2.58;1.75;;;;;;;9.65;100.00;67846.22;5003192;28;20068;-89
2022/02/14 10:13:50;;;;;;;5.55;2.25;;;;;;;;;;5028819;28;20040;-88
2022/02/14 10:16:24;;;;;;;4.47;2.20;;;;;;;9.63;100.00;67838.63;5028424;28;20119;-90
2022/02/14 10:18:50;;;;;;;4.05;2.00;;;;;;;9.66;100.00;67847.34;5028645;28;20049;-90
2022/02/14 10:21:27;;;;;;;4.13;1.90;;;;;;;9.73;100.00;67854.16;5026710;28;20041;-89
2022/02/14 10:24:04;;;;;;;5.13;2.20;;;;;;;;;;5036709;28;20048;-89
2022/02/14 10:26:34;;;;;;;5.10;2.28;;;;;;;9.78;99.64;67854.50;5047948;28;20036;-88
2022/02/14 10:29:21;;;;;;;3.50;1.75;;;;;;;9.74;100.00;67850.53;5030762;28;20204;-88
2022/02/14 10:32:05;;;;;;;4.22;1.90;;;;;;;9.55;100.00;67829.56;5032177;28;20037;-89
2022/02/14 10:34:35;;;;;;;2.38;1.38;;;;;;;;;;5030063;28;20087;-89
2022/02/14 10:37:04;;;;;;;3.60;0.90;;;;;;;;;;5035022;28;20076;-88
2022/02/14 10:39:32;;;;;;;;;;;;;;;8.63;100.00;67732.88;5045740;28;20125;-89
2022/02/14 10:42:17;;;;;;;1.70;0.50;;;;;;;8.32;100.00;67698.88;5030411;28;20019;-89
2022/02/14 10:45:08;;;;;;;1.25;0.70;;;;;;;8.22;100.00;67681.66;5045619;28;20043;-88
2022/02/14 10:47:39;;;;;;;1.55;0.50;;;;;;;8.15;100.00;67679.59;5027219;28;20033;-90
2022/02/14 10:50:05;;;;;;;1.70;0.70;;;;;;;;;;5029981;28;20044;-89
2022/02/14 10:52:38;;;;;;;2.42;0.70;;;;;;;;;;5034640;28;20042;-88
2022/02/14 10:55:06;;;;;;;2.63;0.80;;;;;;;;;;5036802;28;20135;-89
2022/02/14 10:57:35;;;;;;;1.85;0.80;;;;;;;8.13;100.00;67669.38;5020105;28;20160;-89
2022/02/14 11:00:13;;;;;;;1.77;1.00;;;;;;;8.13;100.00;67672.03;5012973;28;20136;-89
2022/02/14 11:02:43;;;;;;;1.55;0.90;;;;;;;8.17;100.00;67681.88;5007617;28;20049;-89
2022/02/14 11:05:11;;;;;;;1.70;0.93;;;;;;;8.13;100.00;67677.91;5016706;28;20149;-90
2022/02/14 11:07:38;;;;;;;1.95;1.00;;;;;;;8.17;100.00;67681.88;5005151;28;20042;-89
2022/02/14 11:10:06;;;;;;;2.45;1.02;;;;;;;8.27;100.00;67693.19;4993826;28;20043;-89
2022/02/14 11:12:36;;;;;;;3.35;1.33;;;;;;;8.34;100.00;67695.25;4970727;28;20047;-89
2022/02/14 11:15:04;;;;;;;2.42;1.10;;;;;;;;;;4999192;28;20041;-89
2022/02/14 11:17:31;;;;;;;3.30;1.23;;;;;;;;;;5005368;28;20056;-89
2022/02/14 11:20:03;;;;;;;3.25;2.20;;;;;;;8.55;100.00;67719.06;5020414;28;20168;-89
2022/02/14 11:22:35;;;;;;;5.07;3.13;;;;;;;8.63;100.00;67732.28;5006730;28;20038;-89
2022/02/14 11:25:43;;;;;;;2.85;1.73;;;;;;;8.70;100.00;67735.50;5008283;28;20060;-89
2022/02/14 11:28:24;;;;;;;4.30;2.22;;;;;;;8.81;100.00;67753.25;5016913;28;20042;-88
2022/02/14 11:31:04;;;;;;;2.85;1.80;;;;;;;8.94;100.00;67761.53;5015096;28;20068;-90
2022/02/14 11:33:32;;;;;;;3.63;2.03;;;;;;;9.06;100.00;67779.88;5023749;28;20467;-91
2022/02/14 11:36:00;;;;;;;2.90;1.70;;;;;;;9.09;100.00;67778.56;5012498;28;20045;-91
2022/02/14 11:38:42;;;;;;;4.40;2.10;;;;;;;;;;5032207;28;20037;-91
2022/02/14 11:41:33;;;;;;;2.97;1.60;;;;;;;9.26;100.00;67803.13;5025784;28;20517;-91
2022/02/14 11:44:11;;;;;;;3.55;1.83;;;;;;;;;;5014071;28;20053;-92
2022/02/14 11:46:42;;;;;;;3.78;2.10;;;;;;;9.39;100.00;67811.44;5015020;28;20038;-90
2022/02/14 11:49:08;;;;;;;3.00;1.50;;;;;;;9.34;100.00;67805.75;5019948;28;20046;-90
2022/02/14 11:51:39;;;;;;;3.40;2.05;;;;;;;9.30;100.00;67806.53;5017202;28;20065;-91
2022/02/14 11:54:06;;;;;;;5.03;1.65;;;;;;;;;;5014520;28;20058;-92
2022/02/14 11:56:32;;;;;;;3.33;2.08;;;;;;;;;;5016734;28;20037;-90
2022/02/14 11:58:57;;;;;;;4.22;1.83;;;;;;;9.22;99.93;67793.28;5037117;28;20042;-92
2022/02/14 12:01:22;;;;;;;3.35;2.00;;;;;;;;;;5039242;28;20045;-91
2022/02/14 12:03:50;;;;;;;5.90;2.28;;;;;;;9.24;100.00;67792.34;5036115;28;20049;-91
2022/02/14 12:06:16;;;;;;;4.15;2.20;;;;;;;9.26;100.00;67802.56;5037541;28;20038;-90
2022/02/14 12:09:07;;;;;;;4.25;2.17;;;;;;;;;;5037158;28;20038;-90
2022/02/14 12:11:46;;;;;;;4.55;2.47;;;;;;;9.25;100.00;67796.69;5031499;28;20551;-92
2022/02/14 12:14:16;;;;;;;4.93;2.50;;;;;;;9.25;99.95;67796.69;5039128;28;20065;-92
2022/02/14 12:22:29;;;;;;;4.15;2.40;;;;;;;9.67;97.66;67840.50;5035525;28;20041;-90
2022/02/14 12:24:56;;;;;;;6.68;2.92;;;;;;;;;;5034801;28;20042;-92
2022/02/14 12:27:23;;;;;;;4.95;2.40;;;;;;;;;;5020345;28;20050;-91
2022/02/14 12:29:49;;;;;;;11.70;2.13;;;;;;;9.74;93.67;67847.88;5033455;28;20387;-91
2022/02/14 12:32:17;;;;;;;4.22;1.80;;;;;;;9.81;93.43;67855.25;5039868;28;20045;-90
2022/02/14 12:34:45;;;;;;;4.68;2.15;;;;;;;9.84;91.52;67861.88;5039109;28;20037;-92
2022/02/14 12:37:14;;;;;;;5.45;1.80;;;;;;;9.82;90.15;67864.38;5018050;28;20509;-92
2022/02/14 12:39:42;;;;;;;3.78;1.73;;;;;;;9.81;90.67;67857.91;5013083;28;20049;-91